createdAt,value
2023-01-04T00:01:29.951Z,4.72
2023-01-04T00:03:57.980Z,3.22
2023-01-04T00:06:27.539Z,6.68
2023-01-04T00:08:56.272Z,2.50
2023-01-04T00:11:25.084Z,5.32
2023-01-04T00:13:57.454Z,2.22
2023-01-04T00:16:27.560Z,4.18
2023-01-04T00:18:56.301Z,2.05
2023-01-04T00:21:25.888Z,4.60
2023-01-04T00:23:56.873Z,3.25
2023-01-04T00:26:27.292Z,2.58
2023-01-04T00:28:56.117Z,4.47
2023-01-04T00:31:25.235Z,2.85
2023-01-04T00:33:55.938Z,4.80
2023-01-04T00:36:24.160Z,4.85
2023-01-04T00:39:08.416Z,2.28
2023-01-04T00:42:02.277Z,1.93
2023-01-04T00:44:30.985Z,1.92
2023-01-04T00:46:59.016Z,2.17
2023-01-04T00:49:27.667Z,1.63
2023-01-04T00:51:56.075Z,3.40
2023-01-04T00:54:24.538Z,1.42
2023-01-04T00:56:53.963Z,1.73
2023-01-04T00:59:23.393Z,1.27
2023-01-04T01:01:52.131Z,3.42
2023-01-04T01:04:22.922Z,1.05
2023-01-04T01:06:51.760Z,1.20
2023-01-04T01:09:22.879Z,1.05
2023-01-04T01:11:51.554Z,1.13
2023-01-04T01:14:24.098Z,1.88
2023-01-04T01:16:56.640Z,0.90
2023-01-04T01:19:26.548Z,3.97
2023-01-04T01:21:54.862Z,2.15
2023-01-04T01:24:22.629Z,1.48
2023-01-04T01:26:50.523Z,1.55
2023-01-04T01:29:18.792Z,4.07
2023-01-04T01:31:48.219Z,2.72
2023-01-04T01:34:16.492Z,9.27
2023-01-04T01:36:47.036Z,2.10
2023-01-04T01:39:15.122Z,2.22
2023-01-04T01:41:43.553Z,2.13
2023-01-04T01:44:45.695Z,1.67
2023-01-04T01:47:17.571Z,5.47
2023-01-04T01:49:47.977Z,1.88
2023-01-04T01:52:19.623Z,1.88
2023-01-04T01:54:52.499Z,3.60
2023-01-04T01:57:23.903Z,2.28
2023-01-04T01:59:54.329Z,5.60
2023-01-04T02:02:23.940Z,4.05
2023-01-04T02:04:52.807Z,3.13
2023-01-04T02:07:23.444Z,2.40
2023-01-04T02:09:52.093Z,2.90
2023-01-04T02:12:19.963Z,2.42
2023-01-04T02:14:51.795Z,3.40
2023-01-04T02:17:30.643Z,3.65
2023-01-04T02:20:14.212Z,3.80
2023-01-04T02:23:36.065Z,2.67
2023-01-04T02:26:44.319Z,3.03
2023-01-04T02:30:08.778Z,4.55
2023-01-04T02:32:52.475Z,3.22
2023-01-04T02:35:26.998Z,4.47
2023-01-04T02:38:05.155Z,5.27
2023-01-04T02:40:43.272Z,5.97
2023-01-04T02:43:36.672Z,4.30
2023-01-04T02:46:09.738Z,4.75
2023-01-04T02:48:58.249Z,3.58
2023-01-04T02:51:29.753Z,8.38
2023-01-04T02:54:00.173Z,6.10
2023-01-04T02:56:39.733Z,6.05
2023-01-04T02:59:25.133Z,4.38
2023-01-04T03:02:19.889Z,7.75
2023-01-04T03:05:19.496Z,3.97
2023-01-04T03:07:54.953Z,5.65
2023-01-04T03:10:34.071Z,4.93
2023-01-04T03:13:07.974Z,4.65
2023-01-04T03:15:39.437Z,4.13
2023-01-04T03:18:16.162Z,3.22
2023-01-04T03:20:48.487Z,5.10
2023-01-04T03:23:36.618Z,5.78
2023-01-04T03:26:27.826Z,6.10
2023-01-04T03:29:16.964Z,3.88
2023-01-04T03:32:08.879Z,4.82
2023-01-04T03:34:53.909Z,4.85
2023-01-04T03:37:28.678Z,5.65
2023-01-04T03:40:31.398Z,5.10
2023-01-04T03:43:26.818Z,3.22
2023-01-04T03:46:16.020Z,4.30
2023-01-04T03:48:52.216Z,4.60
2023-01-04T03:51:24.742Z,3.30
2023-01-04T03:54:00.664Z,3.33
2023-01-04T03:56:30.380Z,5.03
2023-01-04T03:58:58.609Z,4.25
2023-01-04T04:01:28.466Z,5.13
2023-01-04T04:04:14.074Z,8.07
2023-01-04T04:06:59.785Z,3.45
2023-01-04T04:09:29.087Z,5.18
2023-01-04T04:11:57.064Z,3.10
2023-01-04T04:14:25.405Z,3.60
2023-01-04T04:16:53.328Z,5.18
2023-01-04T04:19:22.065Z,12.45
2023-01-04T04:21:50.305Z,4.05
2023-01-04T04:24:20.053Z,6.05
2023-01-04T04:26:49.280Z,5.68
2023-01-04T04:29:18.176Z,7.00
2023-01-04T04:31:48.838Z,4.03
2023-01-04T04:34:16.987Z,2.90
2023-01-04T04:36:45.338Z,4.15
2023-01-04T04:39:15.247Z,7.13
2023-01-04T04:41:42.239Z,2.20
2023-01-04T04:44:15.017Z,3.30
2023-01-04T04:46:43.177Z,2.53
2023-01-04T04:49:12.014Z,3.72
2023-01-04T04:51:41.077Z,4.70
2023-01-04T04:54:10.672Z,2.80
2023-01-04T04:56:39.260Z,1.85
2023-01-04T04:59:07.997Z,3.22
2023-01-04T05:01:37.343Z,4.68
2023-01-04T05:04:06.208Z,7.28
2023-01-04T05:06:34.508Z,2.60
2023-01-04T05:09:02.433Z,1.92
2023-01-04T05:11:47.812Z,4.68
2023-01-04T05:14:15.690Z,2.15
2023-01-04T05:16:45.380Z,4.90
2023-01-04T05:19:13.747Z,1.80
2023-01-04T05:21:41.938Z,6.13
2023-01-04T05:24:13.946Z,3.67
2023-01-04T05:26:41.894Z,4.15
2023-01-04T05:29:30.082Z,3.28
2023-01-04T05:31:58.332Z,1.88
2023-01-04T05:34:26.224Z,1.98
2023-01-04T05:36:54.378Z,2.70
2023-01-04T05:39:22.214Z,1.65
2023-01-04T05:42:07.998Z,2.40
2023-01-04T05:47:09.561Z,4.63
2023-01-04T05:49:43.057Z,3.10
2023-01-04T05:52:11.625Z,2.00
2023-01-04T05:54:39.905Z,4.47
2023-01-04T05:57:08.344Z,3.10
2023-01-04T05:59:41.509Z,1.30
2023-01-04T06:02:16.234Z,2.72
2023-01-04T06:04:44.222Z,3.70
2023-01-04T06:07:12.249Z,4.65
2023-01-04T06:09:40.611Z,6.38
2023-01-04T06:12:08.794Z,2.78
2023-01-04T06:14:37.074Z,1.77
2023-01-04T06:17:05.834Z,2.08
2023-01-04T06:19:35.356Z,1.17
2023-01-04T06:22:03.199Z,0.95
2023-01-04T06:24:31.445Z,2.38
2023-01-04T06:26:59.252Z,2.30
2023-01-04T06:29:27.129Z,3.00
2023-01-04T06:31:55.305Z,4.53
2023-01-04T06:34:30.247Z,1.88
2023-01-04T06:39:28.806Z,4.00
2023-01-04T06:42:03.760Z,1.88
2023-01-04T06:44:34.517Z,1.90
2023-01-04T06:47:02.401Z,2.90
2023-01-04T06:49:30.309Z,2.28
2023-01-04T06:51:59.767Z,3.92
2023-01-04T06:54:27.656Z,3.70
2023-01-04T06:56:55.483Z,2.38
2023-01-04T06:59:23.648Z,4.00
2023-01-04T07:01:51.814Z,2.83
2023-01-04T07:04:19.819Z,6.93
2023-01-04T07:06:48.073Z,2.83
2023-01-04T07:09:20.090Z,2.58
2023-01-04T07:11:47.898Z,2.00
2023-01-04T07:14:15.691Z,3.17
2023-01-04T07:16:43.505Z,2.90
2023-01-04T07:19:11.970Z,2.17
2023-01-04T07:21:39.683Z,3.03
2023-01-04T07:24:07.433Z,4.25
2023-01-04T07:26:37.235Z,1.75
2023-01-04T07:29:17.877Z,3.95
2023-01-04T07:31:47.944Z,4.00
2023-01-04T07:34:16.678Z,1.25
2023-01-04T07:36:44.543Z,1.95
2023-01-04T07:39:13.102Z,4.43
2023-01-04T07:41:43.147Z,4.45
2023-01-04T07:44:11.968Z,2.17
2023-01-04T07:46:40.728Z,2.45
2023-01-04T07:49:16.617Z,2.80
2023-01-04T07:51:46.220Z,3.60
2023-01-04T07:54:14.077Z,4.78
2023-01-04T07:56:43.411Z,3.58
2023-01-04T07:59:13.084Z,2.05
2023-01-04T08:01:41.857Z,2.85
2023-01-04T08:04:11.140Z,3.13
2023-01-04T08:06:41.170Z,2.83
2023-01-04T08:09:09.509Z,4.53
2023-01-04T08:11:37.269Z,3.67
2023-01-04T08:14:06.996Z,2.47
2023-01-04T08:16:37.061Z,4.15
2023-01-04T08:19:08.551Z,1.50
2023-01-04T08:21:37.365Z,1.42
2023-01-04T08:24:06.668Z,1.20
2023-01-04T08:26:35.155Z,3.22
2023-01-04T08:29:02.899Z,3.20
2023-01-04T08:31:34.500Z,2.95
2023-01-04T08:34:04.204Z,4.55
2023-01-04T08:36:33.837Z,2.30
2023-01-04T08:39:05.096Z,2.40
2023-01-04T08:44:38.580Z,3.15
2023-01-04T08:47:08.068Z,4.10
2023-01-04T08:49:35.748Z,6.13
2023-01-04T08:52:03.839Z,6.18
2023-01-04T08:54:31.594Z,3.42
2023-01-04T08:56:59.371Z,2.60
2023-01-04T08:59:27.332Z,4.03
2023-01-04T09:02:01.109Z,10.18
2023-01-04T09:04:34.283Z,5.10
2023-01-04T09:07:02.082Z,3.08
2023-01-04T09:09:30.552Z,3.95
2023-01-04T09:12:00.929Z,4.05
2023-01-04T09:14:28.719Z,2.53
2023-01-04T09:16:56.908Z,3.22
2023-01-04T09:19:24.714Z,5.70
2023-01-04T09:21:53.916Z,4.18
2023-01-04T09:24:21.755Z,5.43
2023-01-04T09:26:50.229Z,2.55
2023-01-04T09:29:18.184Z,3.05
2023-01-04T09:31:46.080Z,4.50
2023-01-04T09:34:17.087Z,3.17
2023-01-04T09:36:46.666Z,3.60
2023-01-04T09:39:22.528Z,6.53
2023-01-04T09:41:58.470Z,3.08
2023-01-04T09:50:14.214Z,1.23
2023-01-04T09:52:50.213Z,3.25
2023-01-04T09:55:39.496Z,4.05
2023-01-04T09:58:27.485Z,4.40
2023-01-04T10:01:02.010Z,7.22
2023-01-04T10:03:32.295Z,6.07
2023-01-04T10:06:01.666Z,4.93
2023-01-04T10:08:31.337Z,3.22
2023-01-04T10:11:18.144Z,2.50
2023-01-04T10:13:59.519Z,16.48
2023-01-04T10:17:11.996Z,5.28
2023-01-04T10:22:39.690Z,3.78
2023-01-04T10:25:27.696Z,3.55
2023-01-04T10:28:12.714Z,5.53
2023-01-04T10:30:49.155Z,2.70
2023-01-04T10:33:25.478Z,1.95
2023-01-04T10:35:54.409Z,4.13
2023-01-04T10:38:26.801Z,3.97
2023-01-04T10:40:57.594Z,4.95
2023-01-04T10:44:10.572Z,4.97
2023-01-04T10:46:30.221Z,2.55
2023-01-04T10:49:05.728Z,2.35
2023-01-04T10:54:13.615Z,4.25
2023-01-04T10:56:50.651Z,2.40
2023-01-04T10:59:25.463Z,2.95
2023-01-04T11:01:58.224Z,2.97
2023-01-04T11:04:31.239Z,2.42
2023-01-04T11:07:04.017Z,3.90
2023-01-04T11:09:40.417Z,1.40
2023-01-04T11:12:12.246Z,1.63
2023-01-04T11:14:41.823Z,1.58
2023-01-04T11:17:12.538Z,4.57
2023-01-04T11:19:40.838Z,2.55
2023-01-04T11:22:16.033Z,2.42
2023-01-04T11:25:07.676Z,1.67
2023-01-04T11:27:42.961Z,3.40
2023-01-04T11:30:18.329Z,1.45
2023-01-04T11:35:16.572Z,1.67
2023-01-04T11:37:44.322Z,1.75
2023-01-04T11:40:24.097Z,3.47
2023-01-04T11:42:53.604Z,1.73
2023-01-04T11:45:26.381Z,5.18
2023-01-04T11:47:55.852Z,3.28
2023-01-04T11:50:40.240Z,2.15
2023-01-04T11:53:29.733Z,11.23
2023-01-04T11:56:11.725Z,1.75
2023-01-04T11:58:39.669Z,4.53
2023-01-04T12:01:22.717Z,1.48
2023-01-04T12:03:51.199Z,2.97
2023-01-04T12:06:21.595Z,2.17
2023-01-04T12:08:49.928Z,4.65
2023-01-04T12:11:27.093Z,2.13
2023-01-04T12:13:55.481Z,3.33
2023-01-04T12:16:34.445Z,2.35
2023-01-04T12:19:02.752Z,2.17
2023-01-04T12:21:36.010Z,5.25
2023-01-04T12:24:07.827Z,2.22
2023-01-04T12:26:42.219Z,2.45
2023-01-04T12:29:42.436Z,2.08
2023-01-04T12:32:41.106Z,3.15
2023-01-04T12:35:44.109Z,5.07
2023-01-04T12:38:12.114Z,1.98
2023-01-04T12:40:56.862Z,1.13
2023-01-04T12:43:27.158Z,1.05
2023-01-04T12:46:49.284Z,2.40
2023-01-04T12:49:51.215Z,1.85
2023-01-04T12:53:02.265Z,2.53
2023-01-04T12:55:58.068Z,3.05
2023-01-04T12:59:24.852Z,3.35
2023-01-04T13:02:19.214Z,1.20
2023-01-04T13:04:58.441Z,2.35
2023-01-04T13:07:43.908Z,1.80
2023-01-04T13:10:23.370Z,2.42
2023-01-04T13:13:03.788Z,1.83
2023-01-04T13:15:46.688Z,0.45
2023-01-04T13:18:33.427Z,2.78
2023-01-04T13:21:04.396Z,1.73
2023-01-04T13:23:32.486Z,3.63
2023-01-04T13:26:34.245Z,1.58
2023-01-04T13:29:17.469Z,1.05
2023-01-04T13:31:55.029Z,3.25
2023-01-04T13:34:26.260Z,2.75
2023-01-04T13:37:11.276Z,5.65
2023-01-04T13:39:42.133Z,1.87
2023-01-04T13:42:18.350Z,2.03
2023-01-04T13:45:20.818Z,3.28
2023-01-04T13:47:51.906Z,3.40
2023-01-04T13:50:30.119Z,2.40
2023-01-04T13:53:07.073Z,1.20
2023-01-04T13:55:37.617Z,2.22
2023-01-04T13:58:08.041Z,1.48
2023-01-04T14:03:37.493Z,1.15
2023-01-04T14:06:18.357Z,2.30
2023-01-04T14:08:53.605Z,1.20
2023-01-04T14:11:41.855Z,1.42
2023-01-04T14:14:32.086Z,0.52
2023-01-04T14:17:19.785Z,0.57
2023-01-04T14:19:50.990Z,1.15
2023-01-04T14:22:37.743Z,1.52
2023-01-04T14:25:56.809Z,0.90
2023-01-04T14:28:49.156Z,1.75
2023-01-04T14:31:36.295Z,0.80
2023-01-04T14:34:25.655Z,1.35
2023-01-04T14:37:05.431Z,2.03
2023-01-04T14:39:35.475Z,0.50
2023-01-04T14:42:04.737Z,0.50
2023-01-04T14:44:36.684Z,0.82
2023-01-04T14:47:08.044Z,0.65
2023-01-04T14:49:35.843Z,0.63
2023-01-04T14:52:10.636Z,0.80
2023-01-04T14:54:39.626Z,0.77
2023-01-04T14:57:07.396Z,1.30
2023-01-04T14:59:37.224Z,1.45
2023-01-04T15:02:05.096Z,3.10
2023-01-04T15:04:32.993Z,2.80
2023-01-04T15:07:02.038Z,3.50
2023-01-04T15:09:30.546Z,3.92
2023-01-04T15:11:58.488Z,5.10
2023-01-04T15:14:26.738Z,4.55
2023-01-04T15:16:55.785Z,10.93
2023-01-04T15:19:23.790Z,7.60
2023-01-04T15:21:52.082Z,7.60
2023-01-04T15:24:19.810Z,7.47
2023-01-04T15:26:48.816Z,13.38
2023-01-04T15:29:16.992Z,11.10
2023-01-04T15:31:44.832Z,12.82
2023-01-04T15:34:17.089Z,9.52
2023-01-04T15:36:45.045Z,9.82
2023-01-04T15:39:14.807Z,13.77
2023-01-04T15:42:03.009Z,15.00
2023-01-04T15:44:30.960Z,13.98
2023-01-04T15:47:00.005Z,19.52
2023-01-04T15:49:30.540Z,14.00
2023-01-04T15:51:58.938Z,14.95
2023-01-04T15:54:27.338Z,20.30
2023-01-04T15:56:55.204Z,20.27
2023-01-04T15:59:23.190Z,19.35
2023-01-04T16:01:52.225Z,24.10
2023-01-04T16:04:20.668Z,22.35
2023-01-04T16:06:50.038Z,26.60
2023-01-04T16:09:17.882Z,22.08
2023-01-04T16:11:59.906Z,21.58
2023-01-04T16:14:27.732Z,32.72
2023-01-04T16:16:55.507Z,21.63
2023-01-04T16:19:24.035Z,30.73
2023-01-04T16:21:53.484Z,27.92
2023-01-04T16:29:58.763Z,23.17
2023-01-04T16:32:26.843Z,27.15
2023-01-04T16:34:55.236Z,33.95
2023-01-04T16:37:28.050Z,36.60
2023-01-04T16:40:11.588Z,26.55
2023-01-04T16:42:41.084Z,32.20
2023-01-04T16:45:10.913Z,31.40
2023-01-04T16:47:41.174Z,31.13
2023-01-04T16:50:10.321Z,26.25
2023-01-04T16:52:40.082Z,32.42
2023-01-04T16:55:09.617Z,30.70
2023-01-04T16:57:37.424Z,31.83
2023-01-04T17:00:06.072Z,31.88
2023-01-04T17:02:34.515Z,29.63
2023-01-04T17:05:02.475Z,25.63
2023-01-04T17:07:32.950Z,31.50
2023-01-04T17:10:02.842Z,27.58
2023-01-04T17:12:48.598Z,28.20
2023-01-04T17:18:06.585Z,35.92
2023-01-04T17:20:34.559Z,28.60
2023-01-04T17:23:02.496Z,31.38
2023-01-04T17:25:32.161Z,25.85
2023-01-04T17:28:00.972Z,33.28
2023-01-04T17:30:28.964Z,37.53
2023-01-04T17:32:56.858Z,37.17
2023-01-04T17:35:24.797Z,32.15
2023-01-04T17:37:52.688Z,32.90
2023-01-04T17:40:23.464Z,34.05
2023-01-04T17:42:53.025Z,31.73
2023-01-04T17:45:21.337Z,32.85
2023-01-04T17:47:49.784Z,33.65
2023-01-04T17:50:18.773Z,33.65
2023-01-04T17:52:47.566Z,29.65
2023-01-04T17:55:15.717Z,29.10
2023-01-04T17:57:44.162Z,32.58
2023-01-04T18:00:24.876Z,33.35
2023-01-04T18:02:52.968Z,39.17
2023-01-04T18:05:20.834Z,38.78
2023-01-04T18:07:49.634Z,37.60
2023-01-04T18:10:27.016Z,30.10
2023-01-04T18:13:01.196Z,28.15
2023-01-04T18:15:30.566Z,34.38
2023-01-04T18:17:58.441Z,29.10
2023-01-04T18:20:27.157Z,39.40
2023-01-04T18:22:55.135Z,36.53
2023-01-04T18:25:22.924Z,32.97
2023-01-04T18:27:51.177Z,25.92
2023-01-04T18:30:19.447Z,33.55
2023-01-04T18:32:48.748Z,35.05
2023-01-04T18:35:16.604Z,26.73
2023-01-04T18:37:47.245Z,27.58
2023-01-04T18:40:15.059Z,35.20
2023-01-04T18:42:47.848Z,32.28
2023-01-04T18:45:15.874Z,33.38
2023-01-04T18:47:47.699Z,32.97
2023-01-04T18:50:17.860Z,27.38
2023-01-04T18:52:46.079Z,31.23
2023-01-04T18:55:14.516Z,34.20
2023-01-04T18:57:42.943Z,32.10
2023-01-04T19:00:13.755Z,30.02
2023-01-04T19:02:42.744Z,36.60
2023-01-04T19:05:12.327Z,26.83
2023-01-04T19:07:41.810Z,29.42
2023-01-04T19:10:11.004Z,31.92
2023-01-04T19:12:39.002Z,33.35
2023-01-04T19:15:09.070Z,35.22
2023-01-04T19:17:37.819Z,28.48
2023-01-04T19:20:06.677Z,32.97
2023-01-04T19:22:35.506Z,36.00
2023-01-04T19:25:12.859Z,31.77
2023-01-04T19:27:41.119Z,35.08
2023-01-04T19:30:10.183Z,31.95
2023-01-04T19:32:41.471Z,33.28
2023-01-04T19:35:12.759Z,23.98
2023-01-04T19:37:41.221Z,29.67
2023-01-04T19:40:13.004Z,28.58
2023-01-04T19:42:42.149Z,36.58
2023-01-04T19:45:13.089Z,21.95
2023-01-04T19:47:41.073Z,27.48
2023-01-04T19:50:10.425Z,33.15
2023-01-04T19:52:39.317Z,25.88
2023-01-04T19:55:07.812Z,29.88
2023-01-04T19:57:38.220Z,31.50
2023-01-04T20:00:06.658Z,31.85
2023-01-04T20:02:35.330Z,34.85
2023-01-04T20:05:03.243Z,40.03
2023-01-04T20:07:31.079Z,34.22
2023-01-04T20:09:58.953Z,26.58
2023-01-04T20:12:27.624Z,38.33
2023-01-04T20:14:56.846Z,36.05
2023-01-04T20:17:24.676Z,36.20
2023-01-04T20:19:53.078Z,47.63
2023-01-04T20:22:20.936Z,30.98
2023-01-04T20:24:48.776Z,26.15
2023-01-04T20:27:16.697Z,35.67
2023-01-04T20:29:44.549Z,27.70
2023-01-04T20:32:13.794Z,53.55
2023-01-04T20:34:41.773Z,47.42
2023-01-04T20:37:09.808Z,36.60
2023-01-04T20:39:37.993Z,26.33
2023-01-04T20:42:23.584Z,37.45
2023-01-04T20:44:51.601Z,33.85
2023-01-04T20:47:20.819Z,29.17
2023-01-04T20:49:49.152Z,35.90
2023-01-04T20:52:17.105Z,28.42
2023-01-04T20:54:45.081Z,29.55
2023-01-04T20:57:13.495Z,31.63
2023-01-04T20:59:41.886Z,36.97
2023-01-04T21:02:11.941Z,29.70
2023-01-04T21:04:46.757Z,25.23
2023-01-04T21:07:14.559Z,29.13
2023-01-04T21:09:42.527Z,28.15
2023-01-04T21:12:10.535Z,26.98
2023-01-04T21:14:38.378Z,39.80
2023-01-04T21:17:06.883Z,24.33
2023-01-04T21:19:34.723Z,26.55
2023-01-04T21:22:04.190Z,27.35
2023-01-04T21:24:32.960Z,19.65
2023-01-04T21:27:01.365Z,21.33
2023-01-04T21:29:29.784Z,25.90
2023-01-04T21:31:57.683Z,22.15
2023-01-04T21:34:27.773Z,19.25
2023-01-04T21:36:55.636Z,28.83
2023-01-04T21:39:25.045Z,26.80
2023-01-04T21:41:54.458Z,26.50
2023-01-04T21:44:22.336Z,35.60
2023-01-04T21:46:50.424Z,30.75
2023-01-04T21:49:18.803Z,36.47
2023-01-04T21:51:46.733Z,23.15
2023-01-04T21:54:14.935Z,36.90
2023-01-04T21:56:45.285Z,32.03
2023-01-04T21:59:13.583Z,22.95
2023-01-04T22:01:42.703Z,36.25
2023-01-04T22:04:11.196Z,33.45
2023-01-04T22:06:40.384Z,36.65
2023-01-04T22:09:13.334Z,29.23
2023-01-04T22:11:43.330Z,25.60
2023-01-04T22:14:12.891Z,33.45
2023-01-04T22:16:41.235Z,32.55
2023-01-04T22:19:12.553Z,38.60
2023-01-04T22:21:43.224Z,28.30
2023-01-04T22:24:12.692Z,31.10
2023-01-04T22:26:41.160Z,27.55
2023-01-04T22:29:10.637Z,34.30
2023-01-04T22:31:40.174Z,33.33
2023-01-04T22:34:08.051Z,39.67
2023-01-04T22:36:36.778Z,42.17
2023-01-04T22:39:05.031Z,31.60
2023-01-04T22:41:33.135Z,31.92
2023-01-04T22:44:03.771Z,25.73
2023-01-04T22:46:33.475Z,38.53
2023-01-04T22:49:03.725Z,30.40
2023-01-04T22:51:32.641Z,24.90
2023-01-04T22:54:02.164Z,25.13
2023-01-04T22:56:30.990Z,31.67
2023-01-04T22:58:59.494Z,35.00
2023-01-04T23:01:29.059Z,30.40
2023-01-04T23:03:58.794Z,35.85
2023-01-04T23:06:31.671Z,33.97
2023-01-04T23:09:01.853Z,27.00
2023-01-04T23:11:31.319Z,30.90
2023-01-04T23:14:00.497Z,32.20
2023-01-04T23:16:32.711Z,37.45
2023-01-04T23:19:01.149Z,25.52
2023-01-04T23:23:58.762Z,33.83
2023-01-04T23:26:28.030Z,28.75
2023-01-04T23:28:56.479Z,29.13
2023-01-04T23:31:27.317Z,39.63
2023-01-04T23:33:56.989Z,38.17
2023-01-04T23:36:26.459Z,37.78
2023-01-04T23:38:58.193Z,62.72
2023-01-04T23:41:44.575Z,40.65
2023-01-04T23:44:15.392Z,43.75
2023-01-04T23:46:47.418Z,33.75
2023-01-04T23:49:15.424Z,43.22
2023-01-04T23:51:43.682Z,39.00
2023-01-04T23:54:20.171Z,52.60
2023-01-04T23:56:48.107Z,40.63
2023-01-04T23:59:15.926Z,57.17
